Time;durP1;ratioP1;P1;durP2;ratioP2;P2;SDS_P1;SDS_P2;PMS_P1;PMS_P2;Temp;Humidity;BMP_temperature;BMP_pressure;BME280_temperature;BME280_humidity;BME280_pressure;Samples;Min_cycle;Max_cycle;Signal;HPM_P1;HPM_P2
2022/08/05 00:02:07;;;;;;;1.55;0.80;;;;;;;26.46;49.04;101517.94;5046411;28;20025;-59
2022/08/05 00:04:32;;;;;;;2.85;1.00;;;;;;;26.46;49.07;101517.09;5047037;28;20029;-59
2022/08/05 00:06:58;;;;;;;3.85;1.10;;;;;;;26.44;48.68;101511.84;5046540;28;20037;-58
2022/08/05 00:09:23;;;;;;;2.28;0.90;;;;;;;26.45;48.91;101512.69;5047085;28;20034;-59
2022/08/05 00:11:48;;;;;;;1.77;0.90;;;;;;;26.45;48.71;101515.41;5027943;28;20087;-59
2022/08/05 00:14:13;;;;;;;2.75;1.00;;;;;;;26.44;48.59;101511.84;5027341;28;20033;-59
2022/08/05 00:16:39;;;;;;;1.77;1.00;;;;;;;26.45;48.82;101529.91;5026723;28;20168;-59
2022/08/05 00:19:04;;;;;;;1.60;0.90;;;;;;;26.43;48.78;101532.81;5026481;28;20041;-59
2022/08/05 00:21:30;;;;;;;2.22;1.10;;;;;;;26.42;48.47;101536.59;5026587;28;20022;-60
2022/08/05 00:23:55;;;;;;;3.45;0.80;;;;;;;26.43;48.25;101526.50;5009188;28;20057;-60
2022/08/05 00:26:21;;;;;;;3.00;0.82;;;;;;;26.36;48.30;101518.28;5026736;28;20030;-58
2022/08/05 00:28:46;;;;;;;1.63;0.90;;;;;;;26.36;48.24;101509.28;5026726;28;20037;-58
2022/08/05 00:31:12;;;;;;;1.20;0.77;;;;;;;26.42;48.51;101516.63;5026367;28;20057;-59
2022/08/05 00:33:37;;;;;;;2.17;1.08;;;;;;;26.42;48.65;101525.69;5026219;28;20018;-59
2022/08/05 00:36:03;;;;;;;1.45;0.82;;;;;;;26.42;48.43;101524.81;5026791;28;20045;-58
2022/08/05 00:38:28;;;;;;;1.65;1.00;;;;;;;26.41;48.30;101520.41;5026556;28;20022;-58
2022/08/05 00:40:56;;;;;;;1.88;1.02;;;;;;;26.41;48.08;101504.03;5026039;28;20471;-58
2022/08/05 00:43:21;;;;;;;1.60;1.20;;;;;;;26.40;48.08;101505.09;5008968;28;20111;-59
2022/08/05 00:45:47;;;;;;;2.30;0.90;;;;;;;26.40;48.22;101508.66;5026177;28;20467;-59
2022/08/05 00:48:20;;;;;;;2.75;0.98;;;;;;;26.40;48.06;101500.47;5008396;28;20061;-59
2022/08/05 00:50:47;;;;;;;2.30;1.00;;;;;;;26.38;48.08;101509.94;5025653;28;20491;-58
2022/08/05 00:53:15;;;;;;;3.15;1.13;;;;;;;26.40;48.00;101518.72;5026360;28;20022;-59
2022/08/05 00:55:41;;;;;;;1.20;1.02;;;;;;;26.39;47.87;101520.63;5025829;28;20026;-59
2022/08/05 00:58:06;;;;;;;1.80;0.90;;;;;;;26.37;48.15;101514.50;5026207;28;20036;-59
2022/08/05 01:00:31;;;;;;;2.40;0.82;;;;;;;26.38;47.90;101512.66;5026003;28;20041;-59
2022/08/05 01:02:57;;;;;;;2.10;0.93;;;;;;;26.38;48.01;101509.94;5030397;28;20448;-59
2022/08/05 01:05:23;;;;;;;3.67;0.95;;;;;;;26.37;48.01;101510.94;5042173;28;20079;-59
2022/08/05 01:07:48;;;;;;;2.25;1.20;;;;;;;26.31;48.06;101500.88;5028125;28;20338;-57
2022/08/05 01:10:15;;;;;;;3.58;1.15;;;;;;;26.36;47.89;101507.38;5028922;28;20033;-59
2022/08/05 01:12:44;;;;;;;1.70;0.95;;;;;;;26.37;48.01;101508.22;5028198;28;20025;-59
2022/08/05 01:15:10;;;;;;;2.45;1.20;;;;;;;26.36;47.97;101514.72;5028438;28;20056;-59
2022/08/05 01:17:42;;;;;;;1.48;0.93;;;;;;;26.35;47.83;101513.06;5027822;28;20429;-58
2022/08/05 01:20:37;;;;;;;3.10;0.90;;;;;;;26.34;48.03;101504.03;5014223;28;20026;-58
2022/08/05 01:23:10;;;;;;;2.72;1.27;;;;;;;26.34;47.75;101495.03;4927012;29;20095;-59
2022/08/05 01:26:22;;;;;;;1.70;1.10;;;;;;;26.25;47.70;101469.84;4927115;29;20414;-59
2022/08/05 01:28:53;;;;;;;1.50;1.00;;;;;;;26.33;48.02;101499.59;4898713;29;20040;-59
2022/08/05 01:31:33;;;;;;;1.15;0.77;;;;;;;26.32;47.99;101500.66;4926684;29;20044;-59
2022/08/05 01:34:10;;;;;;;2.40;1.27;;;;;;;26.32;47.78;101506.13;4910738;29;20618;-59
2022/08/05 01:36:39;;;;;;;2.55;1.02;;;;;;;26.25;47.73;101513.44;4935601;29;20032;-59
2022/08/05 01:39:05;;;;;;;1.15;0.95;;;;;;;26.30;47.71;101518.28;4929913;29;20065;-56
2022/08/05 01:41:34;;;;;;;2.08;1.05;;;;;;;26.30;47.86;101516.41;4945885;29;20024;-58
2022/08/05 01:44:00;;;;;;;1.65;0.90;;;;;;;26.29;47.65;101511.13;4945529;29;20036;-58
2022/08/05 01:46:26;;;;;;;1.60;1.00;;;;;;;26.27;47.75;101505.06;4945636;29;20051;-58
2022/08/05 01:48:53;;;;;;;1.55;0.80;;;;;;;26.30;47.89;101504.66;4928795;29;20031;-59
2022/08/05 01:51:19;;;;;;;2.03;0.98;;;;;;;26.29;47.78;101500.22;4945433;29;20036;-59
2022/08/05 01:53:47;;;;;;;2.15;1.17;;;;;;;26.28;47.83;101502.09;4929844;29;20110;-57
2022/08/05 01:56:13;;;;;;;1.75;0.98;;;;;;;26.24;47.81;101500.84;4945684;29;20039;-60
2022/08/05 01:58:39;;;;;;;1.85;1.15;;;;;;;26.28;47.83;101509.44;4929866;29;20090;-59
2022/08/05 02:01:05;;;;;;;1.95;1.13;;;;;;;26.28;47.73;101498.56;5023009;28;20049;-57
2022/08/05 02:03:35;;;;;;;3.30;0.90;;;;;;;26.27;47.95;101502.31;5025162;28;20025;-60
2022/08/05 02:06:04;;;;;;;1.42;0.80;;;;;;;26.26;47.91;101512.41;5024511;28;20022;-59
2022/08/05 02:08:30;;;;;;;2.15;0.73;;;;;;;26.25;47.83;101510.72;5025587;28;20053;-59
2022/08/05 02:11:01;;;;;;;1.63;0.80;;;;;;;26.25;47.84;101520.75;5035618;28;20030;-59
2022/08/05 02:13:33;;;;;;;2.13;0.90;;;;;;;26.25;47.67;101532.53;5027343;28;20029;-58
2022/08/05 02:16:19;;;;;;;2.33;1.10;;;;;;;26.22;47.88;101534.81;5044477;28;20021;-59
2022/08/05 02:18:52;;;;;;;1.90;1.23;;;;;;;26.25;47.78;101543.44;5044513;28;20017;-57
2022/08/05 02:21:25;;;;;;;2.10;0.88;;;;;;;26.25;48.02;101537.09;5027137;28;20023;-59
2022/08/05 02:23:54;;;;;;;1.50;1.05;;;;;;;26.24;47.75;101535.44;5045431;28;20077;-58
2022/08/05 02:26:27;;;;;;;1.35;0.98;;;;;;;26.24;47.91;101529.97;5027368;28;20029;-58
2022/08/05 02:28:53;;;;;;;1.77;1.02;;;;;;;26.14;47.91;101509.41;5027544;28;20025;-58
2022/08/05 02:31:25;;;;;;;2.35;1.27;;;;;;;26.22;47.95;101516.56;5027050;28;20034;-59
2022/08/05 02:33:57;;;;;;;2.28;0.80;;;;;;;26.22;47.88;101522.03;5044494;28;20029;-59
2022/08/05 02:36:22;;;;;;;2.17;1.00;;;;;;;26.22;47.67;101532.09;5027270;28;20083;-59
2022/08/05 02:38:48;;;;;;;1.38;0.80;;;;;;;26.20;48.04;101529.53;5026990;28;20029;-59
2022/08/05 02:41:15;;;;;;;1.63;0.95;;;;;;;26.19;48.06;101527.88;5044830;28;20084;-58
2022/08/05 02:43:40;;;;;;;3.35;1.08;;;;;;;26.19;47.92;101538.78;5026844;28;20083;-60
2022/08/05 02:46:06;;;;;;;2.10;1.00;;;;;;;26.19;48.03;101544.22;5044564;28;20040;-59
2022/08/05 02:48:31;;;;;;;5.07;1.02;;;;;;;26.20;47.98;101558.69;5044252;28;20037;-58
2022/08/05 02:51:00;;;;;;;1.55;0.85;;;;;;;26.19;47.73;101560.56;5044485;28;20073;-58
2022/08/05 02:53:27;;;;;;;1.80;0.93;;;;;;;26.19;47.85;101555.13;5027322;28;20030;-59
2022/08/05 02:55:53;;;;;;;1.88;0.95;;;;;;;26.18;47.87;101548.00;5027081;28;20125;-59
2022/08/05 02:58:20;;;;;;;2.13;1.25;;;;;;;26.17;47.75;101552.63;5027241;28;20049;-59
2022/08/05 03:00:46;;;;;;;1.98;0.80;;;;;;;26.17;48.05;101549.88;5026945;28;20101;-59
2022/08/05 03:03:15;;;;;;;1.02;0.73;;;;;;;26.12;47.66;101518.81;5044038;28;20033;-59
2022/08/05 03:05:40;;;;;;;;;;;;;;;26.16;47.70;101514.63;5027634;28;20030;-59
2022/08/05 03:08:05;;;;;;;1.58;0.95;;;;;;;26.15;47.76;101513.78;5026902;28;20397;-58
2022/08/05 03:10:31;;;;;;;0.98;0.90;;;;;;;26.12;47.83;101497.00;5037260;28;20490;-58
2022/08/05 03:12:56;;;;;;;1.73;0.68;;;;;;;26.07;48.04;101496.78;5007402;28;20030;-59
2022/08/05 03:15:21;;;;;;;1.25;1.02;;;;;;;26.14;47.90;101517.56;5007279;28;20034;-58
2022/08/05 03:17:47;;;;;;;2.13;1.05;;;;;;;26.14;47.67;101511.28;5024177;28;20026;-58
2022/08/05 03:20:12;;;;;;;2.13;1.15;;;;;;;26.14;47.73;101511.28;5024709;28;20022;-58
2022/08/05 03:22:37;;;;;;;1.73;0.90;;;;;;;26.13;47.77;101512.34;5024621;28;20022;-59
2022/08/05 03:25:03;;;;;;;2.08;0.80;;;;;;;26.05;47.87;101504.31;5024630;28;20022;-59
2022/08/05 03:27:28;;;;;;;1.63;0.80;;;;;;;26.13;47.91;101504.16;5009200;28;20349;-59
2022/08/05 03:29:54;;;;;;;1.38;0.90;;;;;;;26.12;47.95;101506.06;5027935;28;20034;-59
2022/08/05 03:32:19;;;;;;;1.52;0.82;;;;;;;26.01;48.10;101497.59;5027386;28;20029;-58
2022/08/05 03:34:45;;;;;;;2.08;0.80;;;;;;;26.07;47.89;101505.78;5027791;28;20029;-58
2022/08/05 03:37:10;;;;;;;0.98;0.70;;;;;;;26.11;47.69;101503.50;5027896;28;20037;-58
2022/08/05 03:39:36;;;;;;;1.40;1.10;;;;;;;26.09;47.92;101503.72;5028100;28;20081;-59
2022/08/05 03:42:01;;;;;;;1.30;0.93;;;;;;;26.10;47.75;101510.00;5009725;28;20029;-59
2022/08/05 03:44:26;;;;;;;1.33;0.70;;;;;;;26.10;47.66;101527.19;5027935;28;20034;-58
2022/08/05 03:46:52;;;;;;;2.22;1.00;;;;;;;26.08;47.71;101515.66;5027868;28;20030;-59
2022/08/05 03:49:17;;;;;;;1.75;1.08;;;;;;;25.81;47.92;101462.06;5027346;28;20048;-59
2022/08/05 03:51:50;;;;;;;1.33;0.90;;;;;;;26.08;47.88;101512.06;5027561;28;20048;-59
2022/08/05 03:54:24;;;;;;;1.95;0.90;;;;;;;26.08;47.82;101509.34;5010558;28;20044;-60
2022/08/05 03:56:50;;;;;;;2.00;0.90;;;;;;;26.06;47.83;101511.44;5010277;28;20057;-59
2022/08/05 03:59:31;;;;;;;1.10;0.60;;;;;;;26.05;47.77;101507.88;5010299;28;20113;-59
2022/08/05 04:01:58;;;;;;;1.92;0.80;;;;;;;26.07;47.66;101519.41;5027316;28;20507;-59
2022/08/05 04:04:23;;;;;;;2.28;1.17;;;;;;;26.07;47.77;101519.41;5027128;28;20072;-59
2022/08/05 04:06:50;;;;;;;2.78;0.88;;;;;;;26.07;47.66;101510.41;5027555;28;20018;-58
2022/08/05 04:09:15;;;;;;;1.85;0.88;;;;;;;26.06;47.81;101506.00;5027469;28;20025;-58
2022/08/05 04:11:41;;;;;;;1.52;0.88;;;;;;;26.06;47.72;101500.56;5009769;28;20036;-58
2022/08/05 04:14:06;;;;;;;2.10;1.25;;;;;;;26.06;47.74;101512.28;5029564;28;20029;-57
2022/08/05 04:16:34;;;;;;;2.42;0.90;;;;;;;26.06;47.77;101516.91;5047115;28;20506;-59
2022/08/05 04:18:59;;;;;;;2.37;0.80;;;;;;;26.04;47.70;101505.34;5028917;28;20029;-59
2022/08/05 04:21:24;;;;;;;1.27;0.70;;;;;;;26.04;47.90;101503.50;5046924;28;20702;-58
2022/08/05 04:23:50;;;;;;;1.73;0.80;;;;;;;26.04;47.94;101511.66;5047235;28;20422;-59
2022/08/05 04:26:15;;;;;;;1.75;0.98;;;;;;;26.04;47.84;101514.38;5046812;28;20029;-58
2022/08/05 04:28:40;;;;;;;2.05;0.90;;;;;;;26.03;47.70;101522.75;5046765;28;20025;-59
2022/08/05 04:31:06;;;;;;;1.90;0.93;;;;;;;26.02;47.83;101524.63;5046483;28;20026;-59
2022/08/05 04:33:31;;;;;;;3.10;0.98;;;;;;;26.03;47.80;101522.75;5046237;28;20061;-59
2022/08/05 04:35:56;;;;;;;1.52;0.70;;;;;;;26.03;47.77;101525.47;5046848;28;20029;-58
2022/08/05 04:38:21;;;;;;;1.88;0.88;;;;;;;25.99;47.89;101505.13;5028450;28;20425;-59
2022/08/05 04:40:47;;;;;;;2.78;0.70;;;;;;;26.00;47.59;101507.66;5046680;28;20029;-59
2022/08/05 04:43:12;;;;;;;3.17;0.95;;;;;;;26.01;47.61;101509.34;5046564;28;20036;-59
2022/08/05 04:45:37;;;;;;;1.60;0.80;;;;;;;26.00;47.68;101504.94;5046483;28;20569;-58
2022/08/05 04:48:07;;;;;;;1.00;0.68;;;;;;;26.00;47.62;101504.94;5046237;28;20534;-59
2022/08/05 04:50:47;;;;;;;1.85;1.00;;;;;;;26.01;47.84;101520.22;5046470;28;20053;-59
2022/08/05 04:53:14;;;;;;;2.08;0.80;;;;;;;25.99;47.78;101526.91;5046603;28;20033;-59
2022/08/05 04:55:40;;;;;;;2.05;0.80;;;;;;;25.99;47.69;101526.91;5046569;28;20025;-59
2022/08/05 04:58:08;;;;;;;1.35;0.75;;;;;;;26.00;47.78;101525.88;5046397;28;20087;-59
2022/08/05 05:00:34;;;;;;;1.88;0.90;;;;;;;25.98;47.86;101522.50;5046223;28;20048;-59
2022/08/05 05:03:00;;;;;;;3.53;1.00;;;;;;;25.99;47.86;101526.91;5045405;28;20033;-59
2022/08/05 05:05:26;;;;;;;1.63;0.98;;;;;;;25.92;47.85;101518.72;5045510;28;20112;-57
2022/08/05 05:07:51;;;;;;;1.90;0.80;;;;;;;25.98;47.79;101530.69;5027415;28;20030;-59
2022/08/05 05:10:17;;;;;;;2.03;0.70;;;;;;;25.97;47.55;101532.56;5031593;28;20049;-59
2022/08/05 05:12:42;;;;;;;1.60;0.98;;;;;;;25.97;47.57;101534.47;5027587;28;20092;-59
2022/08/05 05:15:08;;;;;;;2.67;0.70;;;;;;;25.98;47.62;101533.41;5028310;28;20037;-58
2022/08/05 05:17:42;;;;;;;3.10;1.10;;;;;;;25.98;47.86;101525.25;5045385;28;20017;-59
2022/08/05 05:20:08;;;;;;;2.00;0.95;;;;;;;25.92;47.62;101533.19;5045992;28;20033;-58
2022/08/05 05:22:34;;;;;;;1.73;0.80;;;;;;;25.95;47.53;101531.09;5045907;28;20014;-58
2022/08/05 05:24:59;;;;;;;2.53;0.80;;;;;;;25.95;47.70;101533.81;5045961;28;20036;-59
2022/08/05 05:27:28;;;;;;;1.73;0.80;;;;;;;25.87;47.87;101519.31;5045581;28;20049;-58
2022/08/05 05:29:53;;;;;;;1.38;0.80;;;;;;;25.95;47.56;101534.66;5045589;28;20026;-59
2022/08/05 05:32:18;;;;;;;1.40;0.70;;;;;;;25.91;47.78;101527.91;5045278;28;20029;-58
2022/08/05 05:34:44;;;;;;;2.60;0.90;;;;;;;25.85;47.27;101520.56;5045118;28;20037;-58
2022/08/05 05:37:11;;;;;;;1.40;0.70;;;;;;;25.95;47.63;101550.16;5045270;28;20033;-59
2022/08/05 05:39:36;;;;;;;1.88;0.80;;;;;;;25.92;47.56;101554.13;5045436;28;20040;-58
2022/08/05 05:42:02;;;;;;;2.03;0.95;;;;;;;25.93;47.53;101561.25;5044913;28;20022;-58
2022/08/05 05:44:27;;;;;;;2.03;0.98;;;;;;;25.95;47.53;101555.59;5045622;28;20026;-59
2022/08/05 05:46:52;;;;;;;6.03;1.10;;;;;;;25.94;47.55;101557.50;5045115;28;20017;-59
2022/08/05 05:49:17;;;;;;;1.95;0.82;;;;;;;25.94;47.48;101560.22;5044154;28;20045;-59
2022/08/05 05:51:42;;;;;;;1.58;0.70;;;;;;;25.94;47.32;101557.50;5045041;28;20029;-59
2022/08/05 05:54:08;;;;;;;2.13;0.95;;;;;;;25.93;47.67;101553.94;5045235;28;20040;-59
2022/08/05 05:56:33;;;;;;;1.38;0.68;;;;;;;25.93;47.41;101558.53;5045130;28;20040;-59
2022/08/05 05:58:58;;;;;;;1.70;0.80;;;;;;;25.93;47.57;101550.38;5045166;28;20040;-59
2022/08/05 06:01:23;;;;;;;2.22;0.90;;;;;;;25.93;47.45;101559.38;5044725;28;20163;-59
2022/08/05 06:03:49;;;;;;;1.67;0.80;;;;;;;25.93;47.70;101550.38;5044504;28;20079;-58
2022/08/05 06:06:14;;;;;;;1.75;1.15;;;;;;;25.92;47.54;101560.44;5045185;28;20033;-59
2022/08/05 06:08:39;;;;;;;2.08;0.90;;;;;;;25.93;47.52;101564.00;5045018;28;20029;-59
2022/08/05 06:11:05;;;;;;;1.23;0.80;;;;;;;25.92;47.44;101573.22;5032649;28;20549;-56
2022/08/05 06:13:30;;;;;;;1.23;0.70;;;;;;;25.90;47.48;101569.81;5024867;28;20030;-59
2022/08/05 06:15:55;;;;;;;1.73;0.90;;;;;;;25.92;47.42;101570.50;5025112;28;20033;-58
2022/08/05 06:18:21;;;;;;;1.00;0.70;;;;;;;25.92;47.34;101576.78;5024753;28;20056;-58
2022/08/05 06:20:46;;;;;;;1.83;0.80;;;;;;;25.84;47.64;101559.75;5025164;28;20045;-59
2022/08/05 06:23:11;;;;;;;1.55;0.77;;;;;;;25.92;47.58;101578.66;5025323;28;20411;-58
2022/08/05 06:25:36;;;;;;;1.67;0.65;;;;;;;25.92;47.62;101582.22;5025065;28;20076;-58
2022/08/05 06:28:02;;;;;;;1.63;0.77;;;;;;;25.92;47.47;101573.22;5024845;28;20026;-58
2022/08/05 06:30:27;;;;;;;1.25;0.80;;;;;;;25.91;47.47;101575.09;5024914;28;20104;-56
2022/08/05 06:32:52;;;;;;;1.00;0.70;;;;;;;25.88;47.57;101574.66;5024687;28;20030;-58
2022/08/05 06:35:18;;;;;;;1.42;0.90;;;;;;;25.92;47.50;101584.13;5025454;28;20085;-59
2022/08/05 06:37:44;;;;;;;2.00;0.80;;;;;;;25.91;47.55;101588.72;5024899;28;20559;-59
2022/08/05 06:40:10;;;;;;;1.50;0.93;;;;;;;25.92;47.26;101589.56;5025170;28;20018;-59
2022/08/05 06:42:35;;;;;;;1.25;0.63;;;;;;;25.92;47.36;101592.28;5024625;28;20040;-59
2022/08/05 06:45:01;;;;;;;1.75;0.80;;;;;;;25.92;47.64;101590.41;5024749;28;20026;-59
2022/08/05 06:47:26;;;;;;;1.00;0.60;;;;;;;25.93;47.40;101586.63;5024207;28;20029;-56
2022/08/05 06:49:51;;;;;;;1.52;0.80;;;;;;;25.95;47.69;101582.84;5024494;28;20046;-59
2022/08/05 06:52:16;;;;;;;1.33;0.70;;;;;;;25.93;47.59;101585.78;5024559;28;20034;-59
2022/08/05 06:54:42;;;;;;;1.30;0.65;;;;;;;25.93;47.45;101591.22;5024937;28;20044;-63
2022/08/05 06:57:07;;;;;;;1.45;0.73;;;;;;;25.94;47.54;101595.63;5024623;28;20026;-59
2022/08/05 06:59:32;;;;;;;3.08;1.17;;;;;;;25.96;47.38;101596.28;5024870;28;20100;-59
2022/08/05 07:01:57;;;;;;;3.38;0.90;;;;;;;25.95;47.41;101580.97;5027207;28;20022;-59
2022/08/05 07:04:23;;;;;;;1.80;0.65;;;;;;;25.97;47.47;101597.13;5028332;28;20034;-59
2022/08/05 07:06:48;;;;;;;1.45;0.73;;;;;;;25.98;47.52;101599.66;5028689;28;20025;-59
2022/08/05 07:09:13;;;;;;;1.33;0.73;;;;;;;25.98;47.45;101593.34;5028574;28;20018;-59
2022/08/05 07:11:38;;;;;;;1.63;0.90;;;;;;;25.99;47.46;101595.03;5044504;28;20040;-60
2022/08/05 07:16:48;;;;;;;1.63;0.90;;;;;;;25.98;47.39;101607.81;5048270;28;20036;-59
2022/08/05 07:19:14;;;;;;;3.90;1.23;;;;;;;25.96;47.44;101601.75;5048225;28;20025;-59
2022/08/05 07:21:40;;;;;;;2.00;0.75;;;;;;;25.97;47.38;101602.59;5048132;28;20075;-59
2022/08/05 07:24:05;;;;;;;2.55;0.90;;;;;;;25.96;47.15;101604.47;5048278;28;20033;-59
2022/08/05 07:26:31;;;;;;;1.70;1.25;;;;;;;25.95;47.29;101608.22;5047796;28;20032;-60
2022/08/05 07:28:56;;;;;;;3.83;1.10;;;;;;;25.92;47.06;101605.91;5047970;28;20022;-58
2022/08/05 07:31:21;;;;;;;1.00;0.80;;;;;;;25.92;47.28;101611.34;5047624;28;20021;-59
2022/08/05 07:33:46;;;;;;;2.78;0.90;;;;;;;25.93;47.28;101615.75;5047311;28;20040;-60
2022/08/05 07:36:13;;;;;;;2.45;0.80;;;;;;;25.92;47.05;101623.09;5048011;28;20057;-59
2022/08/05 07:38:38;;;;;;;1.40;0.65;;;;;;;25.93;47.21;101624.78;5047760;28;20032;-59
2022/08/05 07:41:06;;;;;;;1.40;0.70;;;;;;;25.93;46.86;101618.47;5047682;28;20056;-55
2022/08/05 07:43:32;;;;;;;1.47;0.60;;;;;;;25.93;46.91;101608.41;5047357;28;20025;-59
2022/08/05 07:45:57;;;;;;;2.22;0.80;;;;;;;25.94;47.08;101622.88;5047374;28;20465;-59
2022/08/05 07:48:22;;;;;;;4.00;1.45;;;;;;;25.95;46.99;101637.34;5047102;28;20033;-59
2022/08/05 07:50:47;;;;;;;1.98;0.80;;;;;;;25.91;47.06;101643.22;5047022;28;20041;-59
2022/08/05 07:53:13;;;;;;;1.10;0.88;;;;;;;25.92;46.82;101644.88;5047570;28;20087;-58
2022/08/05 07:55:38;;;;;;;2.17;0.60;;;;;;;25.96;46.91;101652.69;5047051;28;20025;-59
2022/08/05 07:58:03;;;;;;;1.75;0.80;;;;;;;25.95;46.68;101659.97;5047506;28;20033;-59
2022/08/05 08:00:28;;;;;;;1.35;0.70;;;;;;;25.96;46.92;101664.41;5047135;28;20040;-59
2022/08/05 08:02:54;;;;;;;2.03;0.70;;;;;;;25.96;46.84;101658.97;5046869;28;20028;-60
2022/08/05 08:05:19;;;;;;;2.33;1.00;;;;;;;25.97;46.65;101652.47;5047302;28;20029;-59
2022/08/05 08:07:44;;;;;;;1.33;0.70;;;;;;;25.97;46.77;101666.09;5029324;28;20025;-59
2022/08/05 08:10:10;;;;;;;1.48;0.63;;;;;;;25.97;46.84;101660.63;5042673;28;20056;-59
2022/08/05 08:12:35;;;;;;;1.35;0.70;;;;;;;25.98;46.74;101658.75;5026272;28;20030;-59
2022/08/05 08:15:01;;;;;;;2.03;0.80;;;;;;;25.98;46.88;101650.59;5027112;28;20061;-59
2022/08/05 08:17:26;;;;;;;1.30;0.70;;;;;;;25.97;46.87;101652.47;5027065;28;20030;-58
2022/08/05 08:19:51;;;;;;;1.80;0.85;;;;;;;25.99;46.77;101652.25;5026843;28;20033;-59
2022/08/05 08:22:17;;;;;;;1.73;0.98;;;;;;;25.92;46.69;101644.06;5027134;28;20060;-59
2022/08/05 08:24:42;;;;;;;2.80;1.05;;;;;;;26.00;46.67;101649.34;5027137;28;20029;-59
2022/08/05 08:27:07;;;;;;;1.90;0.93;;;;;;;26.01;46.93;101652.91;5026754;28;20028;-59
2022/08/05 08:29:33;;;;;;;2.15;0.70;;;;;;;25.97;46.80;101643.47;5027048;28;20089;-59
2022/08/05 08:31:58;;;;;;;1.40;0.75;;;;;;;25.93;46.51;101641.13;5026537;28;20114;-59
2022/08/05 08:34:25;;;;;;;2.92;0.82;;;;;;;26.02;46.40;101660.03;5026420;28;20069;-59
2022/08/05 08:36:50;;;;;;;1.20;0.70;;;;;;;26.01;46.63;101655.66;5026678;28;20026;-59
2022/08/05 08:39:17;;;;;;;1.45;0.55;;;;;;;26.00;46.94;101657.53;5008912;28;20059;-58
2022/08/05 08:41:43;;;;;;;1.88;0.70;;;;;;;26.02;46.67;101662.78;5026256;28;20037;-58
2022/08/05 08:44:11;;;;;;;1.33;0.50;;;;;;;26.03;47.30;101664.44;5026393;28;20022;-60
2022/08/05 08:46:36;;;;;;;2.30;0.98;;;;;;;26.05;47.33;101667.84;5026665;28;20025;-59
2022/08/05 08:49:03;;;;;;;1.17;0.63;;;;;;;26.06;47.17;101674.97;5025886;28;20380;-58
2022/08/05 08:51:32;;;;;;;0.77;0.57;;;;;;;26.07;46.91;101673.91;5026208;28;20041;-58
2022/08/05 08:53:57;;;;;;;1.70;0.50;;;;;;;26.08;47.15;101672.88;5026778;28;20064;-59
2022/08/05 08:56:23;;;;;;;1.52;1.15;;;;;;;26.02;47.31;101662.78;5026438;28;20117;-59
2022/08/05 08:58:49;;;;;;;1.17;0.60;;;;;;;26.09;46.97;101666.41;5027016;28;20018;-58
2022/08/05 09:01:15;;;;;;;0.98;0.70;;;;;;;26.10;47.14;101678.97;5008750;28;20442;-60
2022/08/05 09:03:40;;;;;;;0.90;0.40;;;;;;;26.12;47.31;101682.34;5026030;28;20025;-59
2022/08/05 09:06:06;;;;;;;0.93;0.50;;;;;;;26.09;47.19;101678.13;5026335;28;20083;-59
2022/08/05 09:08:31;;;;;;;1.20;0.50;;;;;;;26.11;46.54;101678.75;5008743;28;20052;-59
2022/08/05 09:10:57;;;;;;;1.33;0.70;;;;;;;26.11;46.01;101689.66;5037116;28;20029;-59
2022/08/05 09:13:22;;;;;;;0.65;0.43;;;;;;;26.11;46.26;101695.13;5045664;28;20083;-59
2022/08/05 09:15:48;;;;;;;1.00;0.50;;;;;;;26.07;45.75;101696.56;5045558;28;20032;-59
2022/08/05 09:18:13;;;;;;;0.85;0.70;;;;;;;26.05;45.72;101692.38;5028052;28;20083;-58
2022/08/05 09:20:40;;;;;;;0.85;0.40;;;;;;;26.10;45.75;101700.78;5045870;28;20059;-59
2022/08/05 09:23:13;;;;;;;1.35;0.50;;;;;;;26.10;45.75;101701.63;5045481;28;20538;-58
2022/08/05 09:25:44;;;;;;;1.45;0.50;;;;;;;26.04;46.06;101690.66;5045672;28;20031;-57
2022/08/05 09:28:12;;;;;;;0.70;0.43;;;;;;;26.12;46.25;101705.00;5045801;28;20056;-59
2022/08/05 09:30:38;;;;;;;;;;;;;;;26.12;46.16;101710.47;5045830;28;20029;-59
2022/08/05 09:33:03;;;;;;;2.70;0.90;;;;;;;26.13;46.59;101706.69;5027459;28;19956;-58
2022/08/05 09:35:29;;;;;;;1.05;0.60;;;;;;;26.13;46.49;101708.56;5027871;28;20392;-59
2022/08/05 09:37:57;;;;;;;2.05;0.60;;;;;;;26.13;46.39;101708.56;5027459;28;20402;-59
2022/08/05 09:40:35;;;;;;;1.55;0.50;;;;;;;26.13;45.94;101716.75;5045523;28;20089;-59
2022/08/05 09:43:02;;;;;;;0.85;0.45;;;;;;;26.06;46.11;101715.84;5045014;28;20060;-58
2022/08/05 09:45:35;;;;;;;1.10;0.80;;;;;;;26.11;45.86;101729.72;5045412;28;20060;-58
2022/08/05 09:48:18;;;;;;;0.80;0.60;;;;;;;26.08;45.74;101719.19;5044844;28;20084;-58
2022/08/05 09:50:48;;;;;;;1.77;0.47;;;;;;;26.09;44.95;101727.19;5044964;28;20135;-59
2022/08/05 09:53:14;;;;;;;1.30;0.45;;;;;;;26.07;44.76;101717.53;5027825;28;20133;-59
2022/08/05 09:55:39;;;;;;;0.60;0.30;;;;;;;26.09;45.73;101723.63;5045333;28;20029;-59
2022/08/05 09:58:10;;;;;;;0.73;0.43;;;;;;;26.06;45.81;101719.41;5027574;28;20064;-59
2022/08/05 10:00:35;;;;;;;0.80;0.40;;;;;;;26.11;46.18;101725.09;5045119;28;20029;-59
2022/08/05 10:03:08;;;;;;;0.50;0.30;;;;;;;26.12;45.78;101729.53;5044634;28;20106;-59
2022/08/05 10:05:34;;;;;;;0.73;0.40;;;;;;;26.12;44.64;101735.00;5045427;28;20021;-58
2022/08/05 10:08:04;;;;;;;1.15;0.40;;;;;;;26.14;44.89;101741.06;5044886;28;20029;-58
2022/08/05 10:10:31;;;;;;;1.08;0.40;;;;;;;26.16;45.26;101732.69;5038067;28;20048;-59
2022/08/05 10:12:59;;;;;;;0.95;0.55;;;;;;;26.17;45.71;101735.22;5024889;28;20026;-59
2022/08/05 10:15:35;;;;;;;2.10;0.47;;;;;;;26.19;45.82;101737.75;5025239;28;20100;-59
2022/08/05 10:18:08;;;;;;;0.50;0.35;;;;;;;26.20;45.64;101738.59;5024848;28;20096;-59
2022/08/05 10:20:44;;;;;;;1.52;0.30;;;;;;;26.20;45.62;101733.13;5025116;28;20049;-58
2022/08/05 10:23:15;;;;;;;1.08;0.52;;;;;;;26.20;45.54;101749.50;5025170;28;20037;-59
2022/08/05 10:25:40;;;;;;;1.02;0.32;;;;;;;26.15;44.84;101736.47;5025206;28;20392;-59
2022/08/05 10:28:06;;;;;;;0.73;0.32;;;;;;;26.20;45.24;101754.94;5024921;28;20056;-59
2022/08/05 10:30:33;;;;;;;1.15;0.60;;;;;;;26.11;45.15;101735.16;5024920;28;20049;-59
2022/08/05 10:32:59;;;;;;;1.13;0.57;;;;;;;26.19;45.00;101751.38;5024358;28;20029;-58
2022/08/05 10:35:24;;;;;;;0.93;0.40;;;;;;;26.20;45.24;101752.22;5025831;28;20028;-58
2022/08/05 10:37:50;;;;;;;0.93;0.40;;;;;;;26.17;45.08;101745.31;5028858;28;20117;-59
2022/08/05 10:40:26;;;;;;;0.43;0.30;;;;;;;26.21;45.00;101753.91;5029032;28;20084;-60
2022/08/05 10:42:53;;;;;;;2.20;0.52;;;;;;;26.18;44.92;101746.97;5011122;28;20356;-58
2022/08/05 10:45:26;;;;;;;0.75;0.40;;;;;;;26.22;45.19;101763.78;5011557;28;20049;-58
2022/08/05 10:47:51;;;;;;;1.48;0.40;;;;;;;26.21;44.95;101762.06;5028314;28;20041;-58
2022/08/05 10:50:17;;;;;;;0.52;0.30;;;;;;;26.22;44.92;101772.81;5028995;28;20049;-59
2022/08/05 10:52:55;;;;;;;1.98;0.40;;;;;;;26.22;45.13;101771.97;5010794;28;20458;-59
2022/08/05 10:55:21;;;;;;;1.67;0.30;;;;;;;26.20;44.94;101774.88;5028945;28;20045;-58
2022/08/05 10:57:46;;;;;;;1.33;0.60;;;;;;;26.20;45.00;101777.59;5028367;28;20041;-57
2022/08/05 11:00:17;;;;;;;0.85;0.60;;;;;;;26.19;44.96;101792.28;5028502;28;20478;-58
2022/08/05 11:03:04;;;;;;;0.90;0.32;;;;;;;26.21;44.84;101787.47;5028153;28;20022;-58
2022/08/05 11:05:30;;;;;;;0.90;0.40;;;;;;;26.22;44.97;101789.16;5028790;28;20108;-58
2022/08/05 11:08:04;;;;;;;0.60;0.20;;;;;;;26.17;44.76;101786.19;5010701;28;20170;-59
2022/08/05 11:10:30;;;;;;;1.75;0.50;;;;;;;26.22;44.70;101800.06;5035688;28;20041;-59
2022/08/05 11:12:56;;;;;;;0.65;0.32;;;;;;;26.25;44.76;101796.09;5047837;28;20030;-59
2022/08/05 11:15:29;;;;;;;1.48;0.50;;;;;;;26.25;45.00;101794.22;5048239;28;20410;-60
2022/08/05 11:18:12;;;;;;;0.90;0.30;;;;;;;26.27;44.90;101819.41;5047435;28;20109;-56
2022/08/05 11:20:43;;;;;;;0.55;0.30;;;;;;;26.27;44.79;101813.09;5030308;28;20030;-59
2022/08/05 11:23:43;;;;;;;0.68;0.30;;;;;;;26.27;44.83;101811.22;5047944;28;20021;-59
2022/08/05 11:26:20;;;;;;;0.68;0.30;;;;;;;26.28;44.98;101817.50;5047885;28;20093;-59
2022/08/05 11:28:50;;;;;;;0.70;0.25;;;;;;;26.28;45.26;101820.25;5047895;28;20516;-58
2022/08/05 11:31:15;;;;;;;0.93;0.40;;;;;;;26.28;45.12;101823.81;5047872;28;20026;-59